Time;durP1;ratioP1;P1;durP2;ratioP2;P2;SDS_P1;SDS_P2;PMS_P1;PMS_P2;Temp;Humidity;BMP_temperature;BMP_pressure;BME280_temperature;BME280_humidity;BME280_pressure;Samples;Min_cycle;Max_cycle;Signal;HPM_P1;HPM_P2
2023/05/21 00:02:28;;;;;;;24.42;15.93;;;;;;;15.59;100.00;100213.13;4932629;28;20059;-87
2023/05/21 00:05:12;;;;;;;20.55;14.15;;;;;;;15.48;100.00;100205.84;4987038;28;20077;-86
2023/05/21 00:07:48;;;;;;;19.15;14.73;;;;;;;15.55;100.00;100217.84;5013634;28;20049;-86
2023/05/21 00:10:17;;;;;;;21.55;14.60;;;;;;;15.48;100.00;100211.19;5002877;28;20045;-86
2023/05/21 00:12:44;;;;;;;21.35;15.13;;;;;;;15.51;100.00;100215.47;5002213;28;20109;-87
2023/05/21 00:15:13;;;;;;;20.63;15.35;;;;;;;15.50;100.00;100211.94;5014039;28;20080;-86
2023/05/21 00:17:40;;;;;;;19.40;14.57;;;;;;;15.42;100.00;100206.28;5000729;28;20052;-87
2023/05/21 00:20:09;;;;;;;21.85;15.18;;;;;;;15.42;100.00;100216.97;4998524;28;20058;-87
2023/05/21 00:22:50;;;;;;;24.67;16.20;;;;;;;15.33;100.00;100197.09;5024008;28;20049;-85
2023/05/21 00:25:17;;;;;;;19.63;14.90;;;;;;;15.37;100.00;100206.59;5003077;28;20057;-86
2023/05/21 00:27:53;;;;;;;20.42;15.32;;;;;;;15.34;100.00;100197.97;5018121;28;20042;-86
2023/05/21 00:30:22;;;;;;;20.92;15.77;;;;;;;15.37;100.00;100193.28;5003358;28;20081;-85
2023/05/21 00:32:50;;;;;;;21.17;15.00;;;;;;;15.42;100.00;100206.28;5089912;28;20079;-86
2023/05/21 00:35:18;;;;;;;20.98;15.68;;;;;;;15.34;100.00;100185.47;5080754;28;20044;-87
2023/05/21 00:37:46;;;;;;;22.73;15.27;;;;;;;15.41;100.00;100194.78;5098202;28;20138;-86
2023/05/21 00:40:22;;;;;;;21.42;15.00;;;;;;;15.44;100.00;100188.34;5101512;28;20058;-85
2023/05/21 00:42:48;;;;;;;25.15;15.60;;;;;;;15.39;100.00;100187.81;5082594;28;20112;-86
2023/05/21 00:45:24;;;;;;;23.60;15.10;;;;;;;15.46;100.00;100194.41;5085029;28;20047;-85
2023/05/21 00:47:57;;;;;;;19.20;14.73;;;;;;;15.39;100.00;100185.16;5111425;28;20066;-85
2023/05/21 00:50:26;;;;;;;22.45;15.85;;;;;;;15.33;100.00;100174.91;5093083;28;20054;-87
2023/05/21 00:52:53;;;;;;;23.13;15.43;;;;;;;15.38;100.00;100176.31;5068253;28;20083;-85
2023/05/21 00:55:20;;;;;;;21.77;14.93;;;;;;;15.30;100.00;100161.78;5082961;28;20039;-85
2023/05/21 00:57:59;;;;;;;21.73;15.65;;;;;;;15.32;100.00;100178.53;5084260;28;20047;-86
2023/05/21 01:00:27;;;;;;;21.30;15.25;;;;;;;15.24;100.00;100171.06;5083497;28;20043;-86
2023/05/21 01:02:54;;;;;;;21.52;15.63;;;;;;;15.29;100.00;100165.41;5087724;28;20044;-84
2023/05/21 01:05:21;;;;;;;19.52;15.05;;;;;;;15.31;100.00;100177.69;5088158;28;20044;-85
2023/05/21 01:07:51;;;;;;;21.38;15.07;;;;;;;15.29;100.00;100176.06;5072060;28;20044;-85
2023/05/21 01:10:18;;;;;;;23.13;15.27;;;;;;;15.23;100.00;100161.38;5103869;28;20054;-85
2023/05/21 01:12:47;;;;;;;20.48;14.85;;;;;;;15.26;100.00;100170.97;5105320;28;20040;-86
2023/05/21 01:15:18;;;;;;;21.55;15.52;;;;;;;15.24;100.00;100160.41;5088841;28;20048;-86
2023/05/21 01:17:53;;;;;;;22.33;16.25;;;;;;;15.27;100.00;100169.97;5105021;28;20054;-86
2023/05/21 01:20:22;;;;;;;21.35;15.90;;;;;;;15.05;100.00;100117.31;5094549;28;20044;-86
2023/05/21 01:22:52;;;;;;;23.80;15.65;;;;;;;15.13;100.00;100146.94;5095694;28;20095;-86
2023/05/21 01:25:33;;;;;;;20.92;15.85;;;;;;;15.16;100.00;100157.41;5092463;28;20181;-87
2023/05/21 01:28:02;;;;;;;24.63;15.52;;;;;;;15.20;100.00;100152.72;5106189;28;20100;-85
2023/05/21 01:30:45;;;;;;;20.25;15.25;;;;;;;15.05;100.00;100133.31;5088622;28;20048;-86
2023/05/21 01:33:40;;;;;;;18.85;14.70;;;;;;;15.18;100.00;100154.63;5106517;28;20146;-89
2023/05/21 01:36:25;;;;;;;22.13;15.70;;;;;;;15.11;100.00;100148.03;5089002;28;20048;-86
2023/05/21 01:39:23;;;;;;;23.17;16.30;;;;;;;15.02;100.00;100134.38;5089596;28;20119;-88
2023/05/21 01:41:55;;;;;;;21.92;15.90;;;;;;;15.13;100.00;100146.09;5088332;28;20127;-87
2023/05/21 01:44:32;;;;;;;24.60;15.60;;;;;;;14.79;100.00;100100.47;5090454;28;20126;-87
2023/05/21 01:47:17;;;;;;;23.25;15.43;;;;;;;15.07;100.00;100145.56;5123603;28;20101;-87
2023/05/21 01:49:45;;;;;;;20.85;14.77;;;;;;;15.11;100.00;100148.03;5129536;28;20053;-87
2023/05/21 01:52:12;;;;;;;20.83;15.68;;;;;;;15.21;100.00;100149.09;5110976;28;20063;-86
2023/05/21 01:54:44;;;;;;;22.50;15.43;;;;;;;15.20;100.00;100140.25;5129993;28;20069;-86
2023/05/21 01:57:18;;;;;;;25.35;15.43;;;;;;;15.18;100.00;100141.28;5113619;28;20452;-86
2023/05/21 01:59:46;;;;;;;23.15;15.40;;;;;;;15.13;100.00;100132.75;5110921;28;20043;-86
2023/05/21 02:02:22;;;;;;;20.92;15.75;;;;;;;15.17;100.00;100144.94;5108335;28;20046;-86
2023/05/21 02:04:48;;;;;;;21.58;15.25;;;;;;;15.18;100.00;100143.97;5106384;28;20044;-86
2023/05/21 02:07:17;;;;;;;23.25;16.35;;;;;;;15.16;100.00;100140.53;5106552;28;20067;-87
2023/05/21 02:09:44;;;;;;;20.08;15.38;;;;;;;15.16;100.00;100125.41;5108145;28;20040;-85
2023/05/21 02:12:16;;;;;;;21.90;14.45;;;;;;;15.03;100.00;100108.56;5106105;28;20066;-87
2023/05/21 02:14:49;;;;;;;20.77;15.07;;;;;;;15.15;100.00;100129.03;5088264;28;20081;-87
2023/05/21 02:17:23;;;;;;;24.90;15.88;;;;;;;15.15;100.00;100129.03;5121730;28;20044;-87
2023/05/21 02:19:49;;;;;;;19.15;14.43;;;;;;;15.13;100.00;100124.75;5104456;28;20043;-86
2023/05/21 02:22:25;;;;;;;23.65;15.27;;;;;;;15.14;100.00;100127.31;5104719;28;20044;-86
2023/05/21 02:24:53;;;;;;;21.77;15.23;;;;;;;15.08;100.00;100125.09;5103891;28;20047;-86
2023/05/21 02:27:22;;;;;;;;;;;;;;;15.13;100.00;100133.59;5104400;28;20464;-86
2023/05/21 02:29:53;;;;;;;22.13;15.32;;;;;;;14.94;100.00;100103.88;5105663;28;19922;-86
2023/05/21 02:32:23;;;;;;;;;;;;;;;15.06;100.00;100130.53;5108873;28;20047;-86
2023/05/21 02:34:57;;;;;;;21.00;15.35;;;;;;;15.09;100.00;100113.47;5105321;28;20006;-86
2023/05/21 02:37:26;;;;;;;19.83;15.52;;;;;;;14.95;100.00;100101.06;5104734;28;20048;-86
2023/05/21 02:40:03;;;;;;;22.00;14.93;;;;;;;15.04;100.00;100121.78;5105928;28;20062;-87
2023/05/21 02:42:35;;;;;;;21.40;16.00;;;;;;;15.05;100.00;100127.97;5123517;28;20071;-86
2023/05/21 02:45:03;;;;;;;21.27;15.73;;;;;;;15.04;100.00;100124.44;5105009;28;20066;-86
2023/05/21 02:47:33;;;;;;;24.02;16.30;;;;;;;15.06;100.00;100119.88;5106088;28;20063;-86
2023/05/21 02:50:00;;;;;;;20.70;15.40;;;;;;;14.94;100.00;100103.88;5106938;28;20040;-87
2023/05/21 02:52:27;;;;;;;22.48;15.85;;;;;;;14.97;100.00;100106.31;5121014;28;20055;-85
2023/05/21 02:54:55;;;;;;;23.35;15.20;;;;;;;15.11;100.00;100118.69;5130726;28;20054;-87
2023/05/21 02:57:22;;;;;;;21.20;15.65;;;;;;;15.11;100.00;100124.84;5106440;28;20043;-85
2023/05/21 02:59:48;;;;;;;21.92;15.88;;;;;;;15.08;100.00;100112.63;5108752;28;20039;-87
2023/05/21 03:02:17;;;;;;;23.10;15.65;;;;;;;14.86;100.00;100075.06;5106318;28;20147;-85
2023/05/21 03:04:47;;;;;;;21.52;16.05;;;;;;;15.02;100.00;100113.03;5103548;28;20044;-86
2023/05/21 03:07:18;;;;;;;24.88;16.00;;;;;;;14.93;100.00;100097.69;5102929;28;20117;-87
2023/05/21 03:09:46;;;;;;;21.13;15.52;;;;;;;15.03;100.00;100109.41;5104308;28;20051;-86
2023/05/21 03:12:20;;;;;;;20.35;15.70;;;;;;;15.16;100.00;100120.06;5105653;28;20073;-86
2023/05/21 03:14:50;;;;;;;19.75;15.35;;;;;;;15.16;100.00;100125.41;5089326;28;20062;-86
2023/05/21 03:17:29;;;;;;;23.55;16.63;;;;;;;15.09;100.00;100106.31;5108436;28;20055;-86
2023/05/21 03:20:17;;;;;;;19.50;14.95;;;;;;;15.20;100.00;100115.38;5106974;28;20055;-86
2023/05/21 03:22:45;;;;;;;24.40;16.63;;;;;;;15.20;100.00;100116.22;5104455;28;20047;-85
2023/05/21 03:25:15;;;;;;;19.60;15.63;;;;;;;15.17;100.00;100112.91;5103686;28;20062;-86
2023/05/21 03:27:42;;;;;;;21.38;16.13;;;;;;;15.19;100.00;100116.34;5104549;28;20048;-87
2023/05/21 03:30:09;;;;;;;24.05;15.93;;;;;;;15.15;100.00;100102.34;5105896;28;20452;-87
2023/05/21 03:32:36;;;;;;;21.23;15.07;;;;;;;15.17;100.00;100108.44;5107640;28;20093;-85
2023/05/21 03:35:12;;;;;;;;;;;;;;;15.17;100.00;100108.44;5112067;28;20035;-86
2023/05/21 03:37:52;;;;;;;20.65;15.70;;;;;;;15.18;100.00;100110.16;5137895;28;19916;-85
2023/05/21 03:40:27;;;;;;;21.33;15.45;;;;;;;15.18;100.00;100115.47;5131418;28;20042;-86
2023/05/21 03:42:55;;;;;;;24.38;16.05;;;;;;;15.18;100.00;100109.28;5106745;28;20479;-87
2023/05/21 03:45:23;;;;;;;20.27;15.63;;;;;;;15.08;100.00;100091.28;5104122;28;20043;-87
2023/05/21 03:51:55;;;;;;;23.13;15.75;;;;;;;15.17;100.00;100115.59;5100730;28;20432;-85
2023/05/21 03:54:31;;;;;;;20.45;15.57;;;;;;;15.17;100.00;100115.59;5082584;28;20059;-85
2023/05/21 03:57:05;;;;;;;23.20;15.55;;;;;;;15.07;100.00;100088.72;5069075;28;20508;-88
2023/05/21 03:59:32;;;;;;;21.55;15.73;;;;;;;15.20;100.00;100108.22;5069691;28;20040;-87
2023/05/21 04:02:00;;;;;;;23.13;16.65;;;;;;;15.19;100.00;100108.34;5087898;28;20040;-87
2023/05/21 04:04:28;;;;;;;22.73;15.90;;;;;;;15.15;100.00;100110.34;5089686;28;20048;-87
2023/05/21 04:07:13;;;;;;;21.63;15.82;;;;;;;15.20;100.00;100123.38;5100636;28;20459;-87
2023/05/21 04:09:40;;;;;;;21.35;15.65;;;;;;;15.12;100.00;100109.72;5082462;28;20047;-87
2023/05/21 04:12:12;;;;;;;19.77;14.90;;;;;;;15.16;100.00;100109.41;5082735;28;20040;-87
2023/05/21 04:14:40;;;;;;;20.30;15.82;;;;;;;15.13;100.00;100108.75;5098437;28;20097;-87
2023/05/21 04:17:07;;;;;;;21.05;15.90;;;;;;;15.15;100.00;100106.84;5100254;28;20067;-87
2023/05/21 04:19:35;;;;;;;24.35;15.90;;;;;;;15.17;100.00;100116.44;5082443;28;20043;-88
2023/05/21 04:22:02;;;;;;;21.95;15.75;;;;;;;15.07;100.00;100099.38;5065336;28;20106;-87
2023/05/21 04:24:33;;;;;;;21.88;16.77;;;;;;;15.18;100.00;100117.28;5066206;28;20044;-87
2023/05/21 04:27:00;;;;;;;22.85;15.90;;;;;;;15.26;100.00;100121.16;5099150;28;20044;-87
2023/05/21 04:29:28;;;;;;;21.83;16.42;;;;;;;15.18;100.00;100099.47;5097753;28;20039;-87
2023/05/21 04:31:58;;;;;;;18.83;15.75;;;;;;;15.39;100.00;100126.47;5098088;28;20047;-87
2023/05/21 04:34:28;;;;;;;21.30;15.75;;;;;;;15.43;100.00;100125.25;5099542;28;20066;-87
2023/05/21 04:36:55;;;;;;;23.90;16.30;;;;;;;15.32;100.00;100103.84;5098529;28;20483;-88
2023/05/21 04:39:39;;;;;;;23.38;15.95;;;;;;;15.48;100.00;100124.94;5100240;28;20051;-87
2023/05/21 04:42:09;;;;;;;22.33;16.63;;;;;;;15.55;100.00;100132.44;5098534;28;20040;-86
2023/05/21 04:44:43;;;;;;;19.65;15.45;;;;;;;15.46;100.00;100106.38;5098139;28;20044;-87
2023/05/21 04:47:20;;;;;;;19.52;15.48;;;;;;;15.47;100.00;100102.72;5098534;28;20113;-86
2023/05/21 04:49:49;;;;;;;22.33;16.02;;;;;;;15.56;100.00;100125.28;5098582;28;20040;-88
2023/05/21 04:52:19;;;;;;;22.65;15.82;;;;;;;15.56;100.00;100123.47;5098840;28;20135;-87
2023/05/21 04:54:49;;;;;;;;;;;;;;;15.61;100.00;100131.97;5112424;28;20032;-87
2023/05/21 04:57:17;;;;;;;21.92;15.15;;;;;;;15.60;100.00;100119.59;5093809;28;19926;-87
2023/05/21 04:59:43;;;;;;;18.92;15.10;;;;;;;15.69;100.00;100118.09;5087358;28;20051;-87
2023/05/21 05:02:12;;;;;;;20.13;15.85;;;;;;;15.63;100.00;100115.84;5101774;28;20040;-87
2023/05/21 05:04:39;;;;;;;22.38;16.08;;;;;;;15.77;100.00;100129.06;5085547;28;20178;-86
2023/05/21 05:07:10;;;;;;;21.00;15.75;;;;;;;15.82;100.00;100128.72;5102300;28;20052;-87
2023/05/21 05:09:42;;;;;;;18.85;15.63;;;;;;;15.78;100.00;100112.06;5104744;28;20050;-86
2023/05/21 05:12:10;;;;;;;20.23;15.50;;;;;;;15.93;100.00;100131.47;5102730;28;20044;-88
2023/05/21 05:14:37;;;;;;;21.02;15.75;;;;;;;15.92;100.00;100124.41;5103629;28;20044;-88
2023/05/21 05:17:04;;;;;;;20.80;15.82;;;;;;;16.03;100.00;100128.03;5086972;28;20051;-88
2023/05/21 05:19:33;;;;;;;22.13;15.45;;;;;;;16.00;100.00;100117.56;5102055;28;20107;-86
2023/05/21 05:22:03;;;;;;;19.52;15.60;;;;;;;16.00;100.00;100106.88;5090048;28;20047;-86
2023/05/21 05:25:02;;;;;;;20.17;15.45;;;;;;;16.21;100.00;100131.16;5114920;28;20078;-85
2023/05/21 05:27:33;;;;;;;22.38;15.85;;;;;;;16.18;100.00;100115.34;5107049;28;20052;-85
2023/05/21 05:30:03;;;;;;;19.52;15.60;;;;;;;16.30;100.00;100121.59;5084365;28;20532;-84
2023/05/21 05:32:30;;;;;;;18.90;15.50;;;;;;;16.36;100.00;100122.00;5100351;28;20118;-85
2023/05/21 05:35:01;;;;;;;23.70;15.27;;;;;;;16.36;100.00;100108.63;5065013;28;20103;-86
2023/05/21 05:37:35;;;;;;;19.63;15.18;;;;;;;16.52;100.00;100126.19;5102393;28;20062;-86
2023/05/21 05:40:19;;;;;;;22.38;16.73;;;;;;;16.47;100.00;100115.81;5102775;28;20108;-86
2023/05/21 05:42:51;;;;;;;22.02;16.08;;;;;;;16.57;100.00;100132.00;5102605;28;20039;-84
2023/05/21 05:45:25;;;;;;;18.88;14.90;;;;;;;16.57;100.00;100137.34;5101888;28;20036;-84
2023/05/21 05:51:20;;;;;;;21.67;15.23;;;;;;;16.64;100.00;100122.59;5067386;28;20115;-84
2023/05/21 05:53:49;;;;;;;20.67;14.75;;;;;;;16.70;100.00;100116.75;5066503;28;20080;-86
2023/05/21 05:56:21;;;;;;;20.70;15.40;;;;;;;16.73;100.00;100117.38;5069016;28;20045;-86
2023/05/21 05:59:02;;;;;;;21.70;15.60;;;;;;;16.71;100.00;100118.47;5072339;28;20055;-83
2023/05/21 06:01:30;;;;;;;18.33;14.88;;;;;;;16.73;100.00;100119.22;5070878;28;20135;-84
2023/05/21 06:03:57;;;;;;;17.63;14.93;;;;;;;16.82;100.00;100132.75;5053422;28;20045;-85
2023/05/21 06:06:33;;;;;;;17.85;14.82;;;;;;;16.88;100.00;100136.75;5081682;28;20421;-84
2023/05/21 06:09:01;;;;;;;18.75;14.65;;;;;;;16.90;100.00;100134.81;5085039;28;20465;-85
2023/05/21 06:11:28;;;;;;;19.95;15.30;;;;;;;16.89;100.00;100125.09;5082036;28;20461;-84
2023/05/21 06:13:54;;;;;;;19.73;15.63;;;;;;;16.92;100.00;100127.53;5082007;28;20046;-85
2023/05/21 06:16:31;;;;;;;18.85;14.95;;;;;;;17.01;100.00;100134.81;5083966;28;20083;-85
2023/05/21 06:19:05;;;;;;;18.55;14.60;;;;;;;17.14;100.00;100130.25;5081321;28;20047;-85
2023/05/21 06:21:33;;;;;;;18.60;14.88;;;;;;;17.03;100.00;100107.97;5097728;28;20056;-85
2023/05/21 06:24:03;;;;;;;17.42;15.10;;;;;;;17.17;100.00;100127.31;5083333;28;20037;-85
2023/05/21 06:26:39;;;;;;;18.63;14.68;;;;;;;17.19;100.00;100122.69;5085859;28;20385;-84
2023/05/21 06:29:10;;;;;;;19.00;15.40;;;;;;;17.18;100.00;100122.81;5083882;28;20055;-85
2023/05/21 06:31:39;;;;;;;18.40;14.70;;;;;;;17.29;100.00;100135.38;5082706;28;20036;-85
2023/05/21 06:34:07;;;;;;;19.90;15.85;;;;;;;17.33;100.00;100134.13;5056878;28;20040;-85
2023/05/21 06:36:39;;;;;;;18.65;15.13;;;;;;;17.38;100.00;100135.47;5080866;28;20075;-85
2023/05/21 06:39:25;;;;;;;18.25;15.18;;;;;;;17.41;100.00;100129.03;5083245;28;20051;-85
2023/05/21 06:41:54;;;;;;;24.80;15.40;;;;;;;17.45;100.00;100125.16;5084071;28;20052;-85
2023/05/21 06:44:21;;;;;;;18.35;14.88;;;;;;;17.56;100.00;100129.63;5081202;28;20044;-85
2023/05/21 06:46:52;;;;;;;18.75;14.65;;;;;;;17.69;100.00;100119.66;5098983;28;20373;-85
2023/05/21 06:49:31;;;;;;;19.02;14.95;;;;;;;17.81;100.00;100118.66;5081533;28;20044;-84
2023/05/21 06:51:58;;;;;;;19.10;15.15;;;;;;;17.88;100.00;100115.38;5098324;28;20056;-83
2023/05/21 06:54:25;;;;;;;20.58;15.20;;;;;;;18.19;100.00;100120.88;5100966;28;20040;-85
2023/05/21 06:56:54;;;;;;;17.70;15.00;;;;;;;18.39;100.00;100117.41;5103957;28;20071;-83
2023/05/21 07:00:11;;;;;;;17.00;14.25;;;;;;;18.67;100.00;100125.84;5091358;28;20090;-85
2023/05/21 07:02:51;;;;;;;18.98;14.63;;;;;;;18.81;100.00;100122.81;5113280;28;20096;-83
2023/05/21 07:05:22;;;;;;;17.77;13.18;;;;;;;19.10;100.00;100129.22;5108332;28;20533;-85
2023/05/21 07:08:04;;;;;;;14.75;13.25;;;;;;;19.37;100.00;100131.31;5104211;28;20397;-84
2023/05/21 07:10:37;;;;;;;15.85;13.40;;;;;;;19.74;100.00;100131.66;5101097;28;20468;-83
2023/05/21 07:13:04;;;;;;;17.58;14.18;;;;;;;20.01;98.80;100130.16;5084021;28;20036;-83
2023/05/21 07:15:31;;;;;;;17.60;13.55;;;;;;;20.23;94.23;100127.22;5099923;28;20130;-84
2023/05/21 07:18:12;;;;;;;14.82;12.63;;;;;;;20.42;91.44;100112.97;5101762;28;20447;-84
2023/05/21 07:20:48;;;;;;;17.80;13.27;;;;;;;20.74;92.01;100128.81;5084990;28;20134;-85
2023/05/21 07:23:16;;;;;;;17.08;13.18;;;;;;;21.01;85.21;100127.06;5083680;28;20111;-84
2023/05/21 07:25:51;;;;;;;16.75;12.50;;;;;;;21.00;84.86;100124.50;5078811;28;20043;-85
2023/05/21 07:28:19;;;;;;;14.40;12.90;;;;;;;21.13;85.83;100118.81;5083253;28;20040;-85
2023/05/21 07:31:01;;;;;;;16.02;13.13;;;;;;;21.19;81.67;100131.69;5084779;28;20082;-84
2023/05/21 07:33:31;;;;;;;16.45;13.02;;;;;;;21.31;82.35;100134.09;5088974;28;20099;-83
2023/05/21 07:36:06;;;;;;;14.82;13.07;;;;;;;21.48;80.09;100124.38;5024581;28;20045;-86
2023/05/21 07:38:42;;;;;;;16.30;13.15;;;;;;;21.43;82.67;100121.28;5026830;28;20156;-85
2023/05/21 07:41:38;;;;;;;16.58;12.98;;;;;;;21.58;79.85;100119.78;5048328;28;20096;-85
2023/05/21 07:44:27;;;;;;;16.05;13.02;;;;;;;21.70;78.60;100118.63;5063487;28;20049;-84
2023/05/21 07:46:59;;;;;;;16.73;12.82;;;;;;;21.90;79.14;100119.34;5058664;28;20044;-85
2023/05/21 07:49:53;;;;;;;16.00;14.13;;;;;;;21.80;76.25;100099.69;4583096;27;15050942;-85
2023/05/21 07:52:20;;;;;;;15.45;12.65;;;;;;;21.99;76.18;100104.13;5098754;28;20063;-83
2023/05/21 07:54:53;;;;;;;15.00;13.32;;;;;;;22.12;74.75;100098.38;5076757;28;20041;-87
2023/05/21 07:57:36;;;;;;;16.02;12.57;;;;;;;22.30;74.34;100112.72;5080149;28;20108;-84
2023/05/21 08:00:23;;;;;;;14.98;12.70;;;;;;;21.99;75.60;100096.03;5076916;28;20048;-85
2023/05/21 08:03:05;;;;;;;17.42;12.73;;;;;;;21.78;77.45;100108.91;5080692;28;20064;-84
2023/05/21 08:05:55;;;;;;;15.32;12.68;;;;;;;21.38;80.46;100098.50;5089830;28;20048;-84
2023/05/21 08:08:35;;;;;;;17.13;13.60;;;;;;;21.19;82.77;100111.03;5076504;28;20049;-85
2023/05/21 08:11:28;;;;;;;15.20;12.68;;;;;;;21.09;84.27;100117.41;5077809;28;20047;-84
2023/05/21 08:14:18;;;;;;;16.17;13.63;;;;;;;21.06;84.54;100110.47;5076741;28;20431;-84
2023/05/21 08:16:47;;;;;;;15.82;12.95;;;;;;;21.24;85.25;100122.22;5075928;28;20041;-85
2023/05/21 08:19:23;;;;;;;18.85;14.25;;;;;;;21.37;83.75;100118.34;5076327;28;20045;-86
2023/05/21 08:21:52;;;;;;;16.17;12.95;;;;;;;21.34;84.30;100117.63;5076051;28;20443;-86
2023/05/21 08:24:47;;;;;;;15.57;13.50;;;;;;;21.33;84.11;100112.41;5078129;28;20045;-85
2023/05/21 08:27:16;;;;;;;16.05;12.65;;;;;;;21.45;84.63;100123.81;5077497;28;20048;-85
2023/05/21 08:30:12;;;;;;;16.45;13.05;;;;;;;21.34;84.08;100106.88;5077574;28;20094;-85
2023/05/21 08:32:54;;;;;;;17.42;12.77;;;;;;;21.50;84.78;100132.31;5060415;28;20063;-86
2023/05/21 08:35:25;;;;;;;16.40;13.75;;;;;;;21.52;82.56;100120.41;5075138;28;20075;-85
2023/05/21 08:38:06;;;;;;;13.95;12.45;;;;;;;21.52;83.13;100089.91;5078208;28;20071;-85
2023/05/21 08:41:06;;;;;;;15.45;13.52;;;;;;;21.53;82.39;100097.84;5121809;27;20981;-86
2023/05/21 08:43:56;;;;;;;17.83;13.90;;;;;;;21.42;85.40;100116.03;5073339;28;20082;-86
2023/05/21 08:46:43;;;;;;;14.65;13.07;;;;;;;21.39;87.26;100114.50;5086455;28;20052;-85
2023/05/21 08:49:44;;;;;;;14.80;12.93;;;;;;;21.53;85.10;100094.31;5100924;28;20083;-86
2023/05/21 08:52:26;;;;;;;13.77;12.20;;;;;;;21.82;85.09;100104.94;5086914;28;20076;-85
2023/05/21 08:55:10;;;;;;;14.45;12.90;;;;;;;22.39;81.48;100095.59;5090676;28;20040;-85
2023/05/21 08:57:57;;;;;;;18.10;13.27;;;;;;;22.98;78.74;100102.19;5113406;28;20085;-85
2023/05/21 09:00:34;;;;;;;15.43;12.95;;;;;;;23.37;72.41;100103.44;5050512;28;20075;-86
2023/05/21 09:03:16;;;;;;;13.65;11.90;;;;;;;23.52;72.07;100076.66;5097419;28;20070;-85
2023/05/21 09:06:09;;;;;;;14.60;12.88;;;;;;;23.85;69.40;100099.25;5082604;28;20064;-87
2023/05/21 09:08:50;;;;;;;17.98;12.57;;;;;;;23.68;69.50;100084.00;5041897;28;20041;-85
2023/05/21 09:11:35;;;;;;;15.15;12.98;;;;;;;23.67;70.61;100104.78;5057513;28;20187;-87
2023/05/21 09:18:28;;;;;;;15.38;12.32;;;;;;;23.52;72.36;100101.00;5056285;28;20049;-86
2023/05/21 09:21:28;;;;;;;14.75;12.95;;;;;;;23.47;71.80;100073.56;5054468;28;20117;-85
2023/05/21 09:24:10;;;;;;;13.52;12.13;;;;;;;23.65;72.37;100098.69;5049482;28;20045;-86
2023/05/21 09:27:06;;;;;;;14.40;11.95;;;;;;;23.74;70.44;100089.59;5059835;28;20076;-85
2023/05/21 09:29:45;;;;;;;15.40;12.65;;;;;;;23.66;69.27;100099.53;5063687;28;20045;-85
2023/05/21 09:32:31;;;;;;;14.90;13.07;;;;;;;23.73;70.51;100100.56;5068874;28;20107;-86
2023/05/21 09:35:09;;;;;;;15.57;12.60;;;;;;;23.77;69.57;100083.84;5087401;28;20040;-85
2023/05/21 09:37:51;;;;;;;13.77;12.27;;;;;;;23.93;70.69;100087.59;5088752;28;20075;-85
2023/05/21 09:44:24;;;;;;;13.55;12.15;;;;;;;24.11;66.17;100083.75;5104110;28;20501;-84
2023/05/21 09:46:59;;;;;;;16.50;12.82;;;;;;;23.97;66.60;100079.00;5084366;28;20052;-84
2023/05/21 09:49:30;;;;;;;14.88;11.88;;;;;;;24.02;66.06;100073.09;5070506;28;20461;-84
2023/05/21 09:52:10;;;;;;;14.88;12.45;;;;;;;23.96;67.33;100069.19;5082502;28;20040;-86
2023/05/21 09:54:52;;;;;;;14.27;11.93;;;;;;;23.83;68.24;100041.78;5067815;28;20047;-85
2023/05/21 09:57:52;;;;;;;14.35;11.95;;;;;;;24.21;66.38;100074.66;5096370;28;20072;-86
2023/05/21 10:00:36;;;;;;;13.30;11.93;;;;;;;24.34;66.15;100058.81;5064114;28;20053;-85
2023/05/21 10:03:22;;;;;;;13.93;11.90;;;;;;;24.57;65.31;100073.34;5095929;28;20040;-85
2023/05/21 10:06:06;;;;;;;14.13;12.63;;;;;;;24.45;62.14;100064.72;5037582;28;20056;-85
2023/05/21 10:08:52;;;;;;;14.55;11.88;;;;;;;24.20;63.86;100038.66;5063316;28;20033;-83
2023/05/21 10:11:53;;;;;;;14.82;12.23;;;;;;;24.30;64.97;100060.16;5044604;28;20037;-84
2023/05/21 10:14:41;;;;;;;13.65;12.25;;;;;;;24.34;64.77;100066.91;5045278;28;20095;-85
2023/05/21 10:17:29;;;;;;;13.70;12.25;;;;;;;24.29;63.91;100053.88;5045020;28;20033;-85
2023/05/21 10:20:00;;;;;;;13.15;11.48;;;;;;;24.21;62.83;100051.16;5087450;28;20044;-85
2023/05/21 10:22:39;;;;;;;19.35;12.20;;;;;;;24.27;65.34;100060.47;5083427;28;20044;-84
2023/05/21 10:25:37;;;;;;;13.32;11.85;;;;;;;24.32;64.46;100058.13;5072230;28;20135;-83
2023/05/21 10:28:07;;;;;;;12.80;11.50;;;;;;;24.39;65.18;100054.59;5084397;28;20036;-84
2023/05/21 10:34:11;;;;;;;13.73;11.80;;;;;;;24.56;64.39;100028.31;5074569;28;20056;-86
2023/05/21 10:36:46;;;;;;;13.98;12.48;;;;;;;24.82;63.35;100052.53;5089158;27;20039;-86
2023/05/21 10:39:32;;;;;;;14.77;11.38;;;;;;;24.87;61.97;100035.75;5136943;27;20081;-85
2023/05/21 10:42:37;;;;;;;13.18;11.27;;;;;;;25.01;60.67;100045.91;5144528;27;20102;-85
2023/05/21 10:45:24;;;;;;;13.02;11.63;;;;;;;25.10;60.36;100048.41;5135346;28;20081;-86
2023/05/21 10:52:19;;;;;;;13.02;11.63;;;;;;;25.17;60.39;100032.31;5104327;28;20046;-87
2023/05/21 10:55:48;;;;;;;12.60;11.07;;;;;;;25.29;59.84;100038.19;5130564;28;20096;-85
2023/05/21 10:59:20;;;;;;;14.10;11.38;;;;;;;25.15;58.77;100008.09;5106420;28;20031;-84
2023/05/21 11:05:50;;;;;;;12.23;10.57;;;;;;;25.38;56.42;100024.41;5105457;28;20130;-85
2023/05/21 11:11:17;;;;;;;12.38;10.13;;;;;;;25.76;52.60;100036.31;5042089;28;20044;-84
2023/05/21 11:14:42;;;;;;;10.45;9.45;;;;;;;25.76;49.58;100032.75;5020261;28;20064;-87
2023/05/21 11:17:46;;;;;;;11.00;9.73;;;;;;;25.88;52.94;100028.59;5015320;28;20037;-86
2023/05/21 11:20:20;;;;;;;13.70;10.32;;;;;;;25.86;53.13;100022.50;5045055;28;20068;-86
2023/05/21 11:23:07;;;;;;;12.60;9.73;;;;;;;25.66;50.01;100003.13;5057600;28;20068;-86
2023/05/21 11:25:38;;;;;;;11.13;9.30;;;;;;;25.95;48.56;100031.44;5032156;28;20050;-86
2023/05/21 11:28:36;;;;;;;10.10;9.00;;;;;;;26.03;44.74;100029.50;5049345;28;20068;-86
2023/05/21 11:31:29;;;;;;;9.30;8.43;;;;;;;26.04;44.76;100009.50;4994888;28;20152;-87
2023/05/21 11:34:27;;;;;;;9.77;8.75;;;;;;;26.13;44.93;100026.56;5026601;28;20069;-86
2023/05/21 11:37:21;;;;;;;10.95;8.70;;;;;;;26.03;45.25;100025.94;5039809;28;20045;-86
2023/05/21 11:40:32;;;;;;;9.80;8.45;;;;;;;26.02;44.43;100018.84;5035894;28;20041;-87
2023/05/21 11:43:22;;;;;;;9.60;8.60;;;;;;;26.01;44.22;99985.44;5049999;28;20101;-86
2023/05/21 11:45:51;;;;;;;10.23;8.93;;;;;;;26.33;43.26;100008.78;5046866;28;20045;-87
2023/05/21 11:48:31;;;;;;;20.58;9.75;;;;;;;26.50;43.51;100023.06;5049944;28;20045;-86
2023/05/21 11:51:16;;;;;;;11.70;8.95;;;;;;;26.72;44.14;100014.03;5048826;28;20105;-85
2023/05/21 11:54:10;;;;;;;21.85;11.07;;;;;;;26.96;43.42;100020.25;5036113;28;20029;-86
2023/05/21 11:56:58;;;;;;;16.50;9.57;;;;;;;27.15;42.58;100008.81;5056661;28;20056;-86
2023/05/21 11:59:32;;;;;;;12.75;9.43;;;;;;;27.39;43.04;100008.50;5058280;28;20071;-85
2023/05/21 12:02:20;;;;;;;10.00;9.00;;;;;;;27.32;42.57;100004.03;5056589;28;20060;-87
2023/05/21 12:04:49;;;;;;;9.93;8.37;;;;;;;27.33;41.96;100003.84;5057838;28;20049;-86
2023/05/21 12:07:18;;;;;;;;;;;;;;;27.16;42.42;100002.34;5041679;28;20049;-86
2023/05/21 12:14:50;;;;;;;9.98;8.98;;;;;;;27.03;42.22;99988.59;5054445;28;20064;-87
2023/05/21 12:17:30;;;;;;;13.50;8.77;;;;;;;27.13;42.40;100005.44;5055373;28;20044;-86
2023/05/21 12:20:17;;;;;;;10.30;8.00;;;;;;;26.80;41.65;99967.75;5050686;28;20045;-85
2023/05/21 12:22:58;;;;;;;9.80;8.70;;;;;;;26.79;41.57;100000.53;5038079;28;20077;-86
2023/05/21 12:26:04;;;;;;;10.45;8.75;;;;;;;26.72;42.75;100005.88;5040954;28;20033;-83